Time;durP1;ratioP1;P1;durP2;ratioP2;P2;SDS_P1;SDS_P2;PMS_P1;PMS_P2;Temp;Humidity;BMP_temperature;BMP_pressure;BME280_temperature;BME280_humidity;BME280_pressure;Samples;Min_cycle;Max_cycle;Signal;HPM_P1;HPM_P2
2022/06/25 00:01:12;;;;;;;;;;;;;;;-140.72;100.00;52380.72;5076523;28;19969;-69
2022/06/25 00:03:39;;;;;;;;;;;;;;;-140.72;100.00;52360.44;5077992;28;20017;-68
2022/06/25 00:06:05;;;;;;;;;;;;;;;-140.72;100.00;52334.03;5072078;28;19927;-68
2022/06/25 00:08:30;;;;;;;;;;;;;;;-140.72;100.00;52342.16;5081353;28;19916;-67
2022/06/25 00:10:56;;;;;;;;;;;;;;;-140.72;100.00;52350.28;5110442;28;19920;-68
2022/06/25 00:13:21;;;;;;;;;;;;;;;-140.72;100.00;52376.66;5079448;28;19939;-68
2022/06/25 00:15:47;;;;;;;;;;;;;;;-140.72;100.00;52401.00;5081632;28;19977;-68
2022/06/25 00:18:13;;;;;;;;;;;;;;;-140.72;100.00;52384.78;5077900;28;19991;-68
2022/06/25 00:20:38;;;;;;;;;;;;;;;-140.72;100.00;52396.94;5079668;28;20435;-67
2022/06/25 00:23:04;;;;;;;;;;;;;;;-140.72;100.00;52384.78;5073979;28;20506;-67
2022/06/25 00:25:29;;;;;;;;;;;;;;;-140.72;100.00;52358.41;5072913;28;19920;-67
2022/06/25 00:27:55;;;;;;;;;;;;;;;-140.72;100.00;52364.47;5072038;28;20019;-68
2022/06/25 00:30:20;;;;;;;;;;;;;;;-140.72;100.00;52374.63;5078995;28;19985;-67
2022/06/25 00:32:45;;;;;;;;;;;;;;;-140.72;100.00;52348.25;5105085;28;19917;-67
2022/06/25 00:35:11;;;;;;;;;;;;;;;-140.72;100.00;52388.84;5073122;28;19943;-68
2022/06/25 00:37:36;;;;;;;;;;;;;;;-140.72;100.00;52405.06;5075018;28;19939;-67
2022/06/25 00:40:01;;;;;;;;;;;;;;;-140.72;100.00;52388.84;5073915;28;19917;-68
2022/06/25 00:42:26;;;;;;;;;;;;;;;-140.72;100.00;52368.53;5108293;28;20361;-68
2022/06/25 00:44:53;;;;;;;;;;;;;;;-140.72;100.00;52370.56;5069726;28;19917;-68
2022/06/25 00:47:19;;;;;;;;;;;;;;;-140.72;100.00;52366.50;5078345;28;19921;-68
2022/06/25 00:49:46;;;;;;;;;;;;;;;-140.72;100.00;52366.50;5079244;28;19998;-68
2022/06/25 00:52:17;;;;;;;;;;;;;;;-140.72;100.00;52390.84;5075835;28;19916;-68
2022/06/25 00:54:44;;;;;;;;;;;;;;;-140.72;100.00;52388.84;5076379;28;19920;-68
2022/06/25 00:57:11;;;;;;;;;;;;;;;-140.72;100.00;52374.63;5083711;28;19931;-69
2022/06/25 00:59:41;;;;;;;;;;;;;;;-140.72;100.00;52405.06;5076566;28;19962;-68
2022/06/25 01:02:06;;;;;;;;;;;;;;;-140.72;100.00;52388.84;5070296;28;19923;-68
2022/06/25 01:04:31;;;;;;;;;;;;;;;-140.72;100.00;52382.75;5079013;28;19916;-68
2022/06/25 01:06:56;;;;;;;;;;;;;;;-140.72;100.00;52384.78;5076114;28;20003;-68
2022/06/25 01:09:21;;;;;;;;;;;;;;;-140.72;100.00;52411.16;5074116;28;19916;-67
2022/06/25 01:11:47;;;;;;;;;;;;;;;-140.72;100.00;52392.88;5078367;28;19959;-68
2022/06/25 01:14:13;;;;;;;;;;;;;;;-140.72;100.00;52398.97;5075960;28;19917;-68
2022/06/25 01:16:38;;;;;;;;;;;;;;;-140.72;100.00;52409.13;5077006;28;19916;-68
2022/06/25 01:19:04;;;;;;;;;;;;;;;-140.72;100.00;52405.06;5081110;28;19924;-68
2022/06/25 01:21:30;;;;;;;;;;;;;;;-140.72;100.00;52390.84;5079811;28;19928;-68
2022/06/25 01:23:55;;;;;;;;;;;;;;;-140.72;100.00;52403.03;5073884;28;20332;-68
2022/06/25 01:26:20;;;;;;;;;;;;;;;-140.72;100.00;52378.69;5079395;28;20303;-68
2022/06/25 01:28:45;;;;;;;;;;;;;;;-140.72;100.00;52455.78;5078890;28;20369;-68
2022/06/25 01:31:11;;;;;;;;;;;;;;;-140.72;100.00;52413.19;5075173;28;20401;-67
2022/06/25 01:33:36;;;;;;;;;;;;;;;-140.72;100.00;52386.81;5073024;28;20388;-68
2022/06/25 01:36:01;;;;;;;;;;;;;;;-140.72;100.00;52415.22;5083777;28;19931;-68
2022/06/25 01:38:26;;;;;;;;;;;;;;;-140.72;100.00;52407.09;5081227;28;19917;-68
2022/06/25 01:40:52;;;;;;;;;;;;;;;-140.72;100.00;52411.16;5077369;28;19916;-68
2022/06/25 01:43:17;;;;;;;;;;;;;;;-140.72;100.00;52390.84;5080779;28;19916;-67
2022/06/25 01:45:42;;;;;;;;;;;;;;;-140.72;100.00;52401.00;5076974;28;19923;-67
2022/06/25 01:48:08;;;;;;;;;;;;;;;-140.72;100.00;52376.66;5081446;28;20015;-68
2022/06/25 01:50:34;;;;;;;;;;;;;;;-140.72;100.00;52423.31;5077236;28;19916;-68
2022/06/25 01:52:59;;;;;;;;;;;;;;;-140.72;100.00;52403.03;5074649;28;19975;-68
2022/06/25 01:55:24;;;;;;;;;;;;;;;-140.72;100.00;52403.03;5077362;28;20546;-68
2022/06/25 01:57:50;;;;;;;;;;;;;;;-140.72;100.00;52411.16;5071796;28;19912;-68
2022/06/25 02:00:20;;;;;;;;;;;;;;;-140.72;100.00;52403.03;5082282;28;19970;-67
2022/06/25 02:02:46;;;;;;;;;;;;;;;-140.72;100.00;52411.16;5075166;28;20030;-67
2022/06/25 02:05:12;;;;;;;;;;;;;;;-140.72;100.00;52380.72;5082181;28;20385;-68
2022/06/25 02:07:38;;;;;;;;;;;;;;;-140.72;100.00;52394.91;5074111;28;19927;-68
2022/06/25 02:10:03;;;;;;;;;;;;;;;-140.72;100.00;52423.31;5076226;28;19956;-68
2022/06/25 02:12:29;;;;;;;;;;;;;;;-140.72;100.00;52435.50;5073461;28;20012;-67
2022/06/25 02:14:54;;;;;;;;;;;;;;;-140.72;100.00;52421.28;5069150;28;19917;-68
2022/06/25 02:17:20;;;;;;;;;;;;;;;-140.72;100.00;52431.44;5074819;28;20017;-68
2022/06/25 02:19:45;;;;;;;;;;;;;;;-140.72;100.00;52435.50;5076956;28;20005;-68
2022/06/25 02:22:14;;;;;;;;;;;;;;;-140.72;100.00;52461.88;5073841;28;19920;-68
2022/06/25 02:24:40;;;;;;;;;;;;;;;-140.72;100.00;52451.72;5076866;28;19975;-67
2022/06/25 02:27:05;;;;;;;;;;;;;;;-140.72;100.00;52423.31;5079070;28;19927;-68
2022/06/25 02:29:31;;;;;;;;;;;;;;;-140.72;100.00;52401.00;5081130;28;19917;-68
2022/06/25 02:31:57;;;;;;;;;;;;;;;-140.72;100.00;52419.28;5081670;28;19916;-68
2022/06/25 02:34:22;;;;;;;;;;;;;;;-140.72;100.00;52394.91;5073631;28;20011;-68
2022/06/25 02:36:47;;;;;;;;;;;;;;;-140.72;100.00;52417.25;5075310;28;19916;-68
2022/06/25 02:39:13;;;;;;;;;;;;;;;-140.72;100.00;52413.19;5078057;28;20270;-68
2022/06/25 02:41:38;;;;;;;;;;;;;;;-140.72;100.00;52419.28;5073135;28;20400;-68
2022/06/25 02:44:03;;;;;;;;;;;;;;;-140.72;100.00;52415.22;5074723;28;20362;-68
2022/06/25 02:46:28;;;;;;;;;;;;;;;-140.72;100.00;52382.75;5076880;28;20354;-68
2022/06/25 02:48:54;;;;;;;;;;;;;;;-140.72;100.00;52421.28;5072047;28;20381;-67
2022/06/25 02:51:19;;;;;;;;;;;;;;;-140.72;100.00;52415.22;5081598;28;19943;-68
2022/06/25 02:53:44;;;;;;;;;;;;;;;-140.72;100.00;52386.81;5080935;28;20412;-68
2022/06/25 02:58:56;;;;;;;;;;;;;;;-140.72;100.00;52431.44;5064463;28;19928;-68
2022/06/25 03:01:22;;;;;;;;;;;;;;;-140.72;100.00;52417.25;5080652;28;19917;-68
2022/06/25 03:03:47;;;;;;;;;;;;;;;-140.72;100.00;52417.25;5089373;28;19917;-68
2022/06/25 03:06:13;;;;;;;;;;;;;;;-140.72;100.00;52394.91;5088596;28;19917;-67
2022/06/25 03:08:38;;;;;;;;;;;;;;;-140.72;100.00;52392.88;5073934;28;19921;-68
2022/06/25 03:11:04;;;;;;;;;;;;;;;-140.72;100.00;52435.50;5077856;28;19925;-68
2022/06/25 03:13:31;;;;;;;;;;;;;;;-140.72;100.00;52465.94;5074888;28;19970;-67
2022/06/25 03:15:57;;;;;;;;;;;;;;;-140.72;100.00;52417.25;5082772;28;20333;-68
2022/06/25 03:18:22;;;;;;;;;;;;;;;-140.72;100.00;52407.09;5082612;28;19923;-68
2022/06/25 03:20:47;;;;;;;;;;;;;;;-140.72;100.00;52396.94;5081007;28;19916;-67
2022/06/25 03:23:12;;;;;;;;;;;;;;;-140.72;100.00;52415.22;5080737;28;20352;-67
2022/06/25 03:25:38;;;;;;;;;;;;;;;-140.72;100.00;52431.44;5074369;28;19924;-68
2022/06/25 03:28:03;;;;;;;;;;;;;;;-140.72;100.00;52435.50;5076787;28;19921;-67
2022/06/25 03:30:28;;;;;;;;;;;;;;;-140.72;100.00;52390.84;5080623;28;19920;-68
2022/06/25 03:32:53;;;;;;;;;;;;;;;-140.72;100.00;52378.69;5081942;28;19955;-67
2022/06/25 03:35:19;;;;;;;;;;;;;;;-140.72;100.00;52407.09;5080611;28;19928;-67
2022/06/25 03:37:44;;;;;;;;;;;;;;;-140.72;100.00;52455.78;5066868;28;19924;-67
2022/06/25 03:40:10;;;;;;;;;;;;;;;-140.72;100.00;52417.25;5080431;28;19942;-68
2022/06/25 03:42:35;;;;;;;;;;;;;;;-140.72;100.00;52378.69;5065772;28;19962;-68
2022/06/25 03:45:00;;;;;;;;;;;;;;;-140.72;100.00;52453.75;5068367;28;19940;-68
2022/06/25 03:47:25;;;;;;;;;;;;;;;-140.72;100.00;52392.88;5080239;28;19917;-67
2022/06/25 03:49:50;;;;;;;;;;;;;;;-140.72;100.00;52423.31;5082968;28;20386;-68
2022/06/25 03:52:16;;;;;;;;;;;;;;;-140.72;100.00;52405.06;5079369;28;20430;-68
2022/06/25 03:54:41;;;;;;;;;;;;;;;-140.72;100.00;52427.38;5079748;28;20327;-68
2022/06/25 03:57:06;;;;;;;;;;;;;;;-140.72;100.00;52376.66;5081741;28;19927;-67
2022/06/25 03:59:31;;;;;;;;;;;;;;;-140.72;100.00;52405.06;5066633;28;20019;-68
2022/06/25 04:01:57;;;;;;;;;;;;;;;-140.72;100.00;52419.28;5067939;28;19917;-67
2022/06/25 04:04:22;;;;;;;;;;;;;;;-140.72;100.00;52451.72;5071388;28;19972;-67
2022/06/25 04:06:47;;;;;;;;;;;;;;;-140.72;100.00;52370.56;5073965;28;19916;-68
2022/06/25 04:09:12;;;;;;;;;;;;;;;-140.72;100.00;52401.00;5073408;28;20292;-67
2022/06/25 04:11:38;;;;;;;;;;;;;;;-140.72;100.00;52370.56;5071678;28;20293;-68
2022/06/25 04:14:03;;;;;;;;;;;;;;;-140.72;100.00;52429.41;5068983;28;19923;-67
2022/06/25 04:16:28;;;;;;;;;;;;;;;-140.72;100.00;52433.47;5068473;28;20329;-67
2022/06/25 04:18:54;;;;;;;;;;;;;;;-140.72;100.00;52423.31;5067439;28;19917;-67
2022/06/25 04:21:19;;;;;;;;;;;;;;;-140.72;100.00;52384.78;5067039;28;20015;-67
2022/06/25 04:23:44;;;;;;;;;;;;;;;-140.72;100.00;52386.81;5074833;28;19996;-67
2022/06/25 04:26:09;;;;;;;;;;;;;;;-140.72;100.00;52390.84;5075846;28;19966;-67
2022/06/25 04:31:18;;;;;;;;;;;;;;;-140.72;100.00;52366.50;5087957;28;19970;-66
2022/06/25 04:33:44;;;;;;;;;;;;;;;-140.72;100.00;52423.31;5086368;28;19924;-67
2022/06/25 04:36:09;;;;;;;;;;;;;;;-140.72;100.00;52407.09;5069848;28;19984;-68
2022/06/25 04:38:34;;;;;;;;;;;;;;;-140.72;100.00;52390.84;5069792;28;20019;-67
2022/06/25 04:40:59;;;;;;;;;;;;;;;-140.72;100.00;52336.06;5085882;28;19921;-68
2022/06/25 04:43:25;;;;;;;;;;;;;;;-140.72;100.00;52394.91;5079599;28;19924;-68
2022/06/25 04:45:51;;;;;;;;;;;;;;;-140.72;100.00;52427.38;5067248;28;19923;-67
2022/06/25 04:48:16;;;;;;;;;;;;;;;-140.72;100.00;52413.19;5086503;28;19924;-67
2022/06/25 04:50:42;;;;;;;;;;;;;;;-140.72;100.00;52388.84;5089714;28;19938;-67
2022/06/25 04:53:07;;;;;;;;;;;;;;;-140.72;100.00;52401.00;5088532;28;19920;-67
2022/06/25 04:55:32;;;;;;;;;;;;;;;-140.72;100.00;52421.28;5088257;28;20016;-68
2022/06/25 04:57:58;;;;;;;;;;;;;;;-140.72;100.00;52390.84;5075944;28;19978;-70
2022/06/25 05:00:23;;;;;;;;;;;;;;;-140.72;100.00;52403.03;5083518;28;19917;-70
2022/06/25 05:02:48;;;;;;;;;;;;;;;-140.72;100.00;52384.78;5066390;28;20062;-68
2022/06/25 05:05:13;;;;;;;;;;;;;;;-140.72;100.00;52415.22;5080732;28;19930;-68
2022/06/25 05:07:39;;;;;;;;;;;;;;;-140.72;100.00;52362.44;5088276;28;20309;-70
2022/06/25 05:10:04;;;;;;;;;;;;;;;-140.72;100.00;52376.66;5084851;28;19917;-70
2022/06/25 05:15:13;;;;;;;;;;;;;;;-140.72;100.00;52386.81;5088089;28;20047;-72
2022/06/25 05:17:39;;;;;;;;;;;;;;;-140.72;100.00;52380.72;5081384;28;20412;-70
2022/06/25 05:20:04;;;;;;;;;;;;;;;-140.72;100.00;52388.84;5081758;28;19920;-69
2022/06/25 05:22:29;;;;;;;;;;;;;;;-140.72;100.00;52370.56;5085122;28;19924;-70
2022/06/25 05:24:55;;;;;;;;;;;;;;;-140.72;100.00;52378.69;5086155;28;20007;-71
2022/06/25 05:27:20;;;;;;;;;;;;;;;-140.72;100.00;52368.53;5081120;28;19920;-72
2022/06/25 05:29:45;;;;;;;;;;;;;;;-140.72;100.00;52374.63;5062984;28;19916;-73
2022/06/25 05:32:10;;;;;;;;;;;;;;;-140.72;100.00;52380.72;5073953;28;19917;-73
2022/06/25 05:34:36;;;;;;;;;;;;;;;-140.72;100.00;52354.34;5073902;28;19916;-73
2022/06/25 05:37:01;;;;;;;;;;;;;;;-140.72;100.00;52374.63;5075094;28;19916;-75
2022/06/25 05:39:26;;;;;;;;;;;;;;;-140.72;100.00;52392.88;5072659;28;19924;-74
2022/06/25 05:41:51;;;;;;;;;;;;;;;-140.72;100.00;52378.69;5068414;28;19916;-73
2022/06/25 05:44:16;;;;;;;;;;;;;;;-140.72;100.00;52370.56;5075004;28;19916;-75
2022/06/25 05:46:42;;;;;;;;;;;;;;;-140.72;100.00;52348.25;5075177;28;20003;-73
2022/06/25 05:49:07;;;;;;;;;;;;;;;-140.72;100.00;52360.44;5076126;28;20012;-74
2022/06/25 05:51:33;;;;;;;;;;;;;;;-140.72;100.00;52340.13;5075287;28;19974;-75
2022/06/25 05:53:58;;;;;;;;;;;;;;;-140.72;100.00;52344.19;5064435;28;20400;-75
2022/06/25 05:56:23;;;;;;;;;;;;;;;-140.72;100.00;52360.44;5069124;28;20425;-73
2022/06/25 05:58:48;;;;;;;;;;;;;;;-140.72;100.00;52338.09;5066534;28;19920;-74
2022/06/25 06:01:13;;;;;;;;;;;;;;;-140.72;100.00;52356.38;5069330;28;19996;-75
2022/06/25 06:03:39;;;;;;;;;;;;;;;-140.72;100.00;52348.25;5081189;28;19920;-75
2022/06/25 06:06:04;;;;;;;;;;;;;;;-140.72;100.00;52336.06;5084397;28;19917;-74
2022/06/25 06:08:29;;;;;;;;;;;;;;;-140.72;100.00;52327.97;5070337;28;19925;-76
2022/06/25 06:10:55;;;;;;;;;;;;;;;-140.72;100.00;52338.09;5060482;28;19923;-75
2022/06/25 06:13:20;;;;;;;;;;;;;;;-140.72;100.00;52338.09;5067212;28;19929;-75
2022/06/25 06:15:45;;;;;;;;;;;;;;;-140.72;100.00;52317.81;5067268;28;19970;-75
2022/06/25 06:18:10;;;;;;;;;;;;;;;-140.72;100.00;52336.06;5064596;28;19932;-75
2022/06/25 06:20:35;;;;;;;;;;;;;;;-140.72;100.00;52313.75;5060916;28;19916;-75
2022/06/25 06:23:01;;;;;;;;;;;;;;;-140.72;100.00;52327.97;5056738;28;19917;-77
2022/06/25 06:25:27;;;;;;;;;;;;;;;-140.72;100.00;52346.22;5065726;28;19939;-76
2022/06/25 06:27:53;;;;;;;;;;;;;;;-140.72;100.00;52325.94;5063455;28;20015;-76
2022/06/25 06:30:18;;;;;;;;;;;;;;;-140.72;100.00;52297.53;5067307;28;20430;-75
2022/06/25 06:32:43;;;;;;;;;;;;;;;-140.72;100.00;52340.13;5063559;28;19968;-76
2022/06/25 06:35:08;;;;;;;;;;;;;;;-140.72;100.00;52301.59;5061776;28;19920;-74
2022/06/25 06:37:34;;;;;;;;;;;;;;;-140.72;100.00;52342.16;5069450;28;19916;-75
2022/06/25 06:39:59;;;;;;;;;;;;;;;-140.72;100.00;52321.88;5074022;28;20269;-79
2022/06/25 06:42:25;;;;;;;;;;;;;;;-140.72;100.00;52344.19;5073406;28;20017;-80
2022/06/25 06:44:50;;;;;;;;;;;;;;;-140.72;100.00;52346.22;5055890;28;19916;-78
2022/06/25 06:47:15;;;;;;;;;;;;;;;-140.72;100.00;52368.53;5065303;28;20066;-79
2022/06/25 06:49:40;;;;;;;;;;;;;;;-140.72;100.00;52305.63;5062266;28;19924;-79
2022/06/25 06:52:05;;;;;;;;;;;;;;;-140.72;100.00;52321.88;5061869;28;19923;-81
2022/06/25 06:54:31;;;;;;;;;;;;;;;-140.72;100.00;52334.03;5073373;28;19924;-81
2022/06/25 06:56:56;;;;;;;;;;;;;;;-140.72;100.00;52313.75;5078408;28;20309;-78
2022/06/25 06:59:21;;;;;;;;;;;;;;;-140.72;100.00;52334.03;5080963;28;19924;-76
2022/06/25 07:01:47;;;;;;;;;;;;;;;-140.72;100.00;52378.69;5071093;28;20298;-75
2022/06/25 07:04:12;;;;;;;;;;;;;;;-140.72;100.00;52362.44;5087538;28;19923;-69
2022/06/25 07:06:37;;;;;;;;;;;;;;;-140.72;100.00;52325.94;5093549;28;19976;-68
2022/06/25 07:09:03;;;;;;;;;;;;;;;-140.72;100.00;52332.03;5093698;28;19952;-69
2022/06/25 07:11:28;;;;;;;;;;;;;;;-140.72;100.00;52334.03;5095173;28;19969;-69
2022/06/25 07:13:54;;;;;;;;;;;;;;;-140.72;100.00;52362.44;5082149;28;19976;-69
2022/06/25 07:16:19;;;;;;;;;;;;;;;-140.72;100.00;52325.94;5094557;28;19951;-68
2022/06/25 07:18:44;;;;;;;;;;;;;;;-140.72;100.00;52338.09;5093192;28;19963;-70
2022/06/25 07:21:10;;;;;;;;;;;;;;;-140.72;100.00;52364.47;5088873;28;19916;-68
2022/06/25 07:23:35;;;;;;;;;;;;;;;-140.72;100.00;52340.13;5093776;28;19979;-70
2022/06/25 07:26:00;;;;;;;;;;;;;;;-140.72;100.00;52301.59;5092980;28;19916;-69
2022/06/25 07:28:25;;;;;;;;;;;;;;;-140.72;100.00;52344.19;5089279;28;19921;-69
2022/06/25 07:30:50;;;;;;;;;;;;;;;-140.72;100.00;52342.16;5080046;28;19939;-68
2022/06/25 07:33:16;;;;;;;;;;;;;;;-140.72;100.00;52334.03;5084679;28;19917;-66
2022/06/25 07:35:41;;;;;;;;;;;;;;;-140.72;100.00;52370.56;5079526;28;19916;-67
2022/06/25 07:38:07;;;;;;;;;;;;;;;-140.72;100.00;52321.88;5075565;28;19972;-66
2022/06/25 07:40:32;;;;;;;;;;;;;;;-140.72;100.00;52352.31;5079292;28;19917;-66
2022/06/25 07:42:57;;;;;;;;;;;;;;;-140.72;100.00;52313.75;5073475;28;19923;-66
2022/06/25 07:45:22;;;;;;;;;;;;;;;-140.72;100.00;52297.53;5087243;28;19967;-67
2022/06/25 07:47:47;;;;;;;;;;;;;;;-140.72;100.00;52354.34;5074362;28;19916;-66
2022/06/25 07:52:57;;;;;;;;;;;;;;;-140.72;100.00;52305.63;5087182;28;19974;-66
2022/06/25 07:55:22;;;;;;;;;;;;;;;-140.72;100.00;52323.91;5087297;28;19917;-67
2022/06/25 07:57:47;;;;;;;;;;;;;;;-140.72;100.00;52332.03;5085978;28;19920;-66
2022/06/25 08:00:13;;;;;;;;;;;;;;;-140.72;100.00;52340.13;5087288;28;19924;-66
2022/06/25 08:02:38;;;;;;;;;;;;;;;-140.72;100.00;52295.50;5086130;28;19912;-67
2022/06/25 08:05:03;;;;;;;;;;;;;;;-140.72;100.00;52321.88;5086961;28;20285;-67
2022/06/25 08:07:29;;;;;;;;;;;;;;;-140.72;100.00;52313.75;5085905;28;19942;-66
2022/06/25 08:09:54;;;;;;;;;;;;;;;-140.72;100.00;52352.31;5074457;28;19924;-68
2022/06/25 08:12:19;;;;;;;;;;;;;;;-140.72;100.00;52305.63;5085794;28;19928;-66
2022/06/25 08:14:44;;;;;;;;;;;;;;;-140.72;100.00;52315.78;5086754;28;19951;-67
2022/06/25 08:17:09;;;;;;;;;;;;;;;-140.72;100.00;52336.06;5086634;28;19943;-66
2022/06/25 08:19:35;;;;;;;;;;;;;;;-140.72;100.00;52334.03;5084683;28;19920;-67
2022/06/25 08:22:00;;;;;;;;;;;;;;;-140.72;100.00;52356.38;5084711;28;19935;-67
2022/06/25 08:24:26;;;;;;;;;;;;;;;-140.72;100.00;52356.38;5086111;28;19944;-66
2022/06/25 08:26:51;;;;;;;;;;;;;;;-140.72;100.00;52354.34;5085847;28;19916;-66
2022/06/25 08:29:16;;;;;;;;;;;;;;;-140.72;100.00;52388.84;5082693;28;20374;-67
2022/06/25 08:31:41;;;;;;;;;;;;;;;-140.72;100.00;52390.84;5078819;28;19917;-67
2022/06/25 08:34:06;;;;;;;;;;;;;;;-140.72;100.00;52390.84;5080342;28;19917;-67
2022/06/25 08:36:32;;;;;;;;;;;;;;;-140.72;100.00;52346.22;5086636;28;19953;-66
2022/06/25 08:38:57;;;;;;;;;;;;;;;-140.72;100.00;52356.38;5084401;28;19917;-66
2022/06/25 08:41:22;;;;;;;;;;;;;;;-140.72;100.00;52313.75;5081105;28;19920;-67
2022/06/25 08:43:47;;;;;;;;;;;;;;;-140.72;100.00;52372.59;5076172;28;19917;-66
2022/06/25 08:46:14;;;;;;;;;;;;;;;-140.72;100.00;52336.06;5086111;28;19978;-66
2022/06/25 08:48:42;;;;;;;;;;;;;;;-140.72;100.00;52352.31;5086581;28;19943;-66
2022/06/25 08:51:08;;;;;;;;;;;;;;;-140.72;100.00;52390.84;5081980;28;19917;-66
2022/06/25 08:53:34;;;;;;;;;;;;;;;-140.72;100.00;52398.97;5080255;28;20401;-67
2022/06/25 08:55:59;;;;;;;;;;;;;;;-140.72;100.00;52413.19;5080252;28;19928;-67
2022/06/25 08:58:25;;;;;;;;;;;;;;;-140.72;100.00;52423.31;5085189;28;19916;-67
2022/06/25 09:00:50;;;;;;;;;;;;;;;-140.72;100.00;52409.13;5067061;28;20382;-66
2022/06/25 09:03:15;;;;;;;;;;;;;;;-140.72;100.00;52388.84;5063931;28;19917;-66
2022/06/25 09:05:42;;;;;;;;;;;;;;;-140.72;100.00;52431.44;5081279;28;19916;-67
2022/06/25 09:08:08;;;;;;;;;;;;;;;-140.72;100.00;52429.41;5076916;28;19924;-66
2022/06/25 09:10:34;;;;;;;;;;;;;;;-140.72;100.00;52398.97;5083910;28;20006;-67
2022/06/25 09:13:00;;;;;;;;;;;;;;;-140.72;100.00;52425.34;5076761;28;19921;-67
2022/06/25 09:15:37;;;;;;;;;;;;;;;-140.72;100.00;52419.28;5069596;28;20281;-67
2022/06/25 09:18:09;;;;;;;;;;;;;;;-140.72;100.00;52417.25;5068897;28;19917;-67
2022/06/25 09:20:34;;;;;;;;;;;;;;;-140.72;100.00;52443.63;5079865;28;19917;-68
2022/06/25 09:23:05;;;;;;;;;;;;;;;-140.72;100.00;52423.31;5067789;28;19952;-67
2022/06/25 09:25:31;;;;;;;;;;;;;;;-140.72;100.00;52407.09;5068284;28;19925;-67
2022/06/25 09:27:57;;;;;;;;;;;;;;;-140.72;100.00;52433.47;5081395;28;19991;-67
2022/06/25 09:30:24;;;;;;;;;;;;;;;-140.72;100.00;52421.28;5074785;28;19927;-67
2022/06/25 09:32:51;;;;;;;;;;;;;;;-140.72;100.00;52415.22;5087131;28;19920;-68
2022/06/25 09:35:27;;;;;;;;;;;;;;;-140.72;100.00;52388.84;5086748;28;20014;-67
2022/06/25 09:37:53;;;;;;;;;;;;;;;-140.72;100.00;52398.97;5086429;28;19916;-66
2022/06/25 09:40:18;;;;;;;;;;;;;;;-140.72;100.00;52401.00;5085104;28;19923;-67
2022/06/25 09:42:46;;;;;;;;;;;;;;;-140.72;100.00;52396.94;5082071;28;19917;-67
2022/06/25 09:45:13;;;;;;;;;;;;;;;-140.72;100.00;52451.72;5086525;28;19968;-67
2022/06/25 09:47:43;;;;;;;;;;;;;;;-140.72;100.00;52435.50;5086685;28;19984;-68
2022/06/25 09:50:19;;;;;;;;;;;;;;;-140.72;100.00;52433.47;5085625;28;20014;-67
2022/06/25 09:52:54;;;;;;;;;;;;;;;-140.72;100.00;52405.06;5073683;28;19924;-68
2022/06/25 09:55:21;;;;;;;;;;;;;;;-140.72;100.00;52403.03;5087033;28;19916;-67
2022/06/25 09:57:46;;;;;;;;;;;;;;;-140.72;100.00;52419.28;5086001;28;19948;-67
2022/06/25 10:00:14;;;;;;;;;;;;;;;-140.72;100.00;52411.16;5085040;28;19917;-67
2022/06/25 10:02:41;;;;;;;;;;;;;;;-140.72;100.00;52382.75;5085932;28;19927;-67
2022/06/25 10:05:06;;;;;;;;;;;;;;;-140.72;100.00;52407.09;5085163;28;20015;-66
2022/06/25 10:10:21;;;;;;;;;;;;;;;-140.72;100.00;52386.81;5071849;28;19939;-67
2022/06/25 10:12:47;;;;;;;;;;;;;;;-140.72;100.00;52386.81;5065693;28;19917;-67
2022/06/25 10:15:17;;;;;;;;;;;;;;;-140.72;100.00;52348.25;5068033;28;19923;-68
2022/06/25 10:17:43;;;;;;;;;;;;;;;-140.72;100.00;52327.97;5089284;28;19943;-68
2022/06/25 10:20:09;;;;;;;;;;;;;;;-140.72;100.00;52374.63;5078975;28;19955;-67
2022/06/25 10:22:36;;;;;;;;;;;;;;;-140.72;100.00;52342.16;5094667;28;19928;-67
2022/06/25 10:25:02;;;;;;;;;;;;;;;-140.72;100.00;52358.41;5086131;28;20400;-67
2022/06/25 10:27:27;;;;;;;;;;;;;;;-140.72;100.00;52309.69;5074625;28;19923;-70
2022/06/25 10:29:54;;;;;;;;;;;;;;;-140.72;100.00;52256.94;5062756;28;19938;-71
2022/06/25 10:32:19;;;;;;;;;;;;;;;-140.72;100.00;52305.63;5070429;28;19927;-71
2022/06/25 10:34:55;;;;;;;;;;;;;;;-140.72;100.00;52279.25;5071344;28;20293;-71
2022/06/25 10:37:20;;;;;;;;;;;;;;;-140.72;100.00;52220.41;5058169;28;20007;-72
2022/06/25 10:39:53;;;;;;;;;;;;;;;-140.72;100.00;52248.81;5063283;28;19967;-74
2022/06/25 10:45:31;;;;;;;;;;;;;;;-140.72;100.00;52269.13;5069244;28;19963;-72
2022/06/25 10:47:58;;;;;;;;;;;;;;;-140.72;100.00;52224.47;5073444;28;19916;-73
2022/06/25 10:50:23;;;;;;;;;;;;;;;-140.72;100.00;52214.34;5078779;28;19920;-72
2022/06/25 10:53:00;;;;;;;;;;;;;;;-140.72;100.00;52244.78;5068734;28;19924;-74
2022/06/25 10:55:25;;;;;;;;;;;;;;;-140.72;100.00;52240.72;5089924;28;19924;-73
2022/06/25 10:57:51;;;;;;;;;;;;;;;-140.72;100.00;52224.47;5075202;28;19916;-73
2022/06/25 11:00:16;;;;;;;;;;;;;;;-140.72;100.00;52226.50;5071913;28;19920;-72
2022/06/25 11:02:41;;;;;;;;;;;;;;;-140.72;100.00;52149.41;5073756;28;19926;-71
2022/06/25 11:05:17;;;;;;;;;;;;;;;-140.72;100.00;52151.44;5072973;28;20293;-74
2022/06/25 11:07:42;;;;;;;;;;;;;;;-140.72;100.00;52155.50;5066539;28;19917;-71
2022/06/25 11:10:08;;;;;;;;;;;;;;;-140.72;100.00;52236.66;5064213;28;19916;-74
2022/06/25 11:12:34;;;;;;;;;;;;;;;-140.72;100.00;52283.31;5062775;28;19917;-76
2022/06/25 11:15:07;;;;;;;;;;;;;;;-140.72;100.00;52246.78;5067181;28;20041;-72
2022/06/25 11:17:32;;;;;;;;;;;;;;;-140.72;100.00;52220.41;5075927;28;20022;-79
2022/06/25 11:20:03;;;;;;;;;;;;;;;-140.72;100.00;52232.59;5071336;28;19920;-72
2022/06/25 11:22:28;;;;;;;;;;;;;;;-140.72;100.00;52254.91;5070937;28;19969;-73
2022/06/25 11:30:23;;;;;;;;;;;;;;;-140.72;100.00;52321.88;5072389;28;20046;-73
2022/06/25 11:32:49;;;;;;;;;;;;;;;-140.72;100.00;52252.88;5065510;28;20002;-75
2022/06/25 11:35:14;;;;;;;;;;;;;;;-140.72;100.00;52153.47;5063157;28;19952;-74
2022/06/25 11:37:39;;;;;;;;;;;;;;;-140.72;100.00;52131.16;5074562;28;20295;-72
2022/06/25 11:40:15;;;;;;;;;;;;;;;-140.72;100.00;52001.28;5068857;28;19917;-73
2022/06/25 11:42:40;;;;;;;;;;;;;;;-140.72;100.00;51972.88;5061562;28;19923;-71
2022/06/25 11:45:06;;;;;;;;;;;;;;;-140.72;100.00;51995.19;5063214;28;19917;-71
2022/06/25 11:47:31;;;;;;;;;;;;;;;-140.72;100.00;52076.34;5066181;28;20423;-72
2022/06/25 11:49:56;;;;;;;;;;;;;;;-140.72;100.00;52037.81;5066973;28;19979;-71
2022/06/25 11:52:24;;;;;;;;;;;;;;;-140.72;100.00;52179.84;5068326;28;20295;-71
2022/06/25 11:54:51;;;;;;;;;;;;;;;-140.72;100.00;52159.56;5064055;28;19932;-72
2022/06/25 11:57:17;;;;;;;;;;;;;;;-140.72;100.00;52206.22;5072788;28;19917;-73
2022/06/25 11:59:43;;;;;;;;;;;;;;;-140.72;100.00;52200.13;5060496;28;19916;-71
2022/06/25 12:02:08;;;;;;;;;;;;;;;-140.72;100.00;52204.19;5066430;28;20098;-72
2022/06/25 12:04:54;;;;;;;;;;;;;;;-140.72;100.00;52177.81;5066937;28;20393;-72
2022/06/25 12:07:21;;;;;;;;;;;;;;;-140.72;100.00;52212.31;5063517;28;19920;-73
2022/06/25 12:09:48;;;;;;;;;;;;;;;-140.72;100.00;52200.13;5073445;28;20091;-74
2022/06/25 12:12:14;;;;;;;;;;;;;;;-140.72;100.00;52206.22;5057625;28;19923;-74
2022/06/25 12:14:40;;;;;;;;;;;;;;;-140.72;100.00;52175.78;5066429;28;19921;-74
2022/06/25 12:17:06;;;;;;;;;;;;;;;-140.72;100.00;52125.06;5065432;28;20389;-74
2022/06/25 12:19:43;;;;;;;;;;;;;;;-140.72;100.00;52035.78;5072341;28;19967;-77
2022/06/25 12:22:17;;;;;;;;;;;;;;;-140.72;100.00;51976.94;5067499;28;19916;-74
2022/06/25 12:24:45;;;;;;;;;;;;;;;-140.72;100.00;51944.47;5072645;28;19962;-75
2022/06/25 12:27:11;;;;;;;;;;;;;;;-140.72;100.00;51983.03;5073058;28;20429;-75
2022/06/25 12:29:36;;;;;;;;;;;;;;;-140.72;100.00;51907.97;5059080;28;19960;-74
2022/06/25 12:32:01;;;;;;;;;;;;;;;-140.72;100.00;51914.03;5070972;28;19920;-74
2022/06/25 12:34:27;;;;;;;;;;;;;;;-140.72;100.00;51920.13;5079330;28;19917;-72